sensor_id;sensor_type;location;lat;lon;timestamp;P1;durP1;ratioP1;P2;durP2;ratioP2
9536;SDS011;4807;48.024;11.726;2022-10-31T00:02:11;5.00;;;2.50;;
9536;SDS011;4807;48.024;11.726;2022-10-31T00:05:19;6.67;;;2.00;;
9536;SDS011;4807;48.024;11.726;2022-10-31T00:08:27;3.53;;;2.30;;
9536;SDS011;4807;48.024;11.726;2022-10-31T00:11:36;2.03;;;1.77;;
9536;SDS011;4807;48.024;11.726;2022-10-31T00:14:44;4.70;;;2.80;;
9536;SDS011;4807;48.024;11.726;2022-10-31T00:17:54;3.27;;;2.33;;
9536;SDS011;4807;48.024;11.726;2022-10-31T00:21:03;3.27;;;2.07;;
9536;SDS011;4807;48.024;11.726;2022-10-31T00:24:12;4.50;;;2.73;;
9536;SDS011;4807;48.024;11.726;2022-10-31T00:27:20;5.13;;;2.40;;
9536;SDS011;4807;48.024;11.726;2022-10-31T00:30:29;5.60;;;2.40;;
9536;SDS011;4807;48.024;11.726;2022-10-31T00:33:40;7.63;;;2.60;;
9536;SDS011;4807;48.024;11.726;2022-10-31T00:36:49;5.47;;;2.13;;
9536;SDS011;4807;48.024;11.726;2022-10-31T00:39:57;8.00;;;2.47;;
9536;SDS011;4807;48.024;11.726;2022-10-31T00:43:05;6.23;;;2.70;;
9536;SDS011;4807;48.024;11.726;2022-10-31T00:46:14;3.93;;;2.10;;
9536;SDS011;4807;48.024;11.726;2022-10-31T00:49:24;5.30;;;2.17;;
9536;SDS011;4807;48.024;11.726;2022-10-31T00:52:32;4.33;;;2.33;;
9536;SDS011;4807;48.024;11.726;2022-10-31T00:55:41;5.47;;;2.20;;
9536;SDS011;4807;48.024;11.726;2022-10-31T00:58:50;5.60;;;2.80;;
9536;SDS011;4807;48.024;11.726;2022-10-31T01:01:59;9.33;;;2.53;;
9536;SDS011;4807;48.024;11.726;2022-10-31T01:05:09;4.23;;;2.80;;
9536;SDS011;4807;48.024;11.726;2022-10-31T01:08:17;6.07;;;2.43;;
9536;SDS011;4807;48.024;11.726;2022-10-31T01:11:27;4.13;;;2.23;;
9536;SDS011;4807;48.024;11.726;2022-10-31T01:14:43;10.50;;;2.80;;
9536;SDS011;4807;48.024;11.726;2022-10-31T01:17:52;6.17;;;2.57;;
9536;SDS011;4807;48.024;11.726;2022-10-31T01:24:24;4.93;;;2.07;;
9536;SDS011;4807;48.024;11.726;2022-10-31T01:27:33;4.43;;;2.20;;
9536;SDS011;4807;48.024;11.726;2022-10-31T01:30:41;6.93;;;2.67;;
9536;SDS011;4807;48.024;11.726;2022-10-31T01:33:50;4.57;;;2.60;;
9536;SDS011;4807;48.024;11.726;2022-10-31T01:36:59;3.43;;;2.30;;
9536;SDS011;4807;48.024;11.726;2022-10-31T01:40:10;5.23;;;2.17;;
9536;SDS011;4807;48.024;11.726;2022-10-31T01:43:19;6.00;;;2.50;;
9536;SDS011;4807;48.024;11.726;2022-10-31T01:46:33;6.33;;;2.20;;
9536;SDS011;4807;48.024;11.726;2022-10-31T01:49:48;6.77;;;2.00;;
9536;SDS011;4807;48.024;11.726;2022-10-31T01:53:01;9.57;;;2.30;;
9536;SDS011;4807;48.024;11.726;2022-10-31T01:56:14;9.57;;;5.27;;
9536;SDS011;4807;48.024;11.726;2022-10-31T01:59:26;10.07;;;3.97;;
9536;SDS011;4807;48.024;11.726;2022-10-31T02:02:40;6.67;;;3.50;;
9536;SDS011;4807;48.024;11.726;2022-10-31T02:05:49;7.27;;;2.63;;
9536;SDS011;4807;48.024;11.726;2022-10-31T02:09:01;6.90;;;3.50;;
9536;SDS011;4807;48.024;11.726;2022-10-31T02:12:14;12.93;;;3.40;;
9536;SDS011;4807;48.024;11.726;2022-10-31T02:15:25;5.37;;;2.57;;
9536;SDS011;4807;48.024;11.726;2022-10-31T02:18:34;4.77;;;2.63;;
9536;SDS011;4807;48.024;11.726;2022-10-31T02:21:43;6.03;;;2.37;;
9536;SDS011;4807;48.024;11.726;2022-10-31T02:25:09;4.67;;;1.90;;
9536;SDS011;4807;48.024;11.726;2022-10-31T02:36:23;4.83;;;2.17;;
9536;SDS011;4807;48.024;11.726;2022-10-31T02:39:42;4.00;;;2.20;;
9536;SDS011;4807;48.024;11.726;2022-10-31T02:43:20;5.17;;;1.83;;
9536;SDS011;4807;48.024;11.726;2022-10-31T02:46:35;3.47;;;2.23;;
9536;SDS011;4807;48.024;11.726;2022-10-31T02:49:56;5.37;;;2.10;;
9536;SDS011;4807;48.024;11.726;2022-10-31T02:53:14;2.63;;;1.80;;
9536;SDS011;4807;48.024;11.726;2022-10-31T02:56:23;3.53;;;1.87;;
9536;SDS011;4807;48.024;11.726;2022-10-31T02:59:31;3.20;;;1.97;;
9536;SDS011;4807;48.024;11.726;2022-10-31T03:02:47;2.20;;;1.63;;
9536;SDS011;4807;48.024;11.726;2022-10-31T03:06:13;6.20;;;2.17;;
9536;SDS011;4807;48.024;11.726;2022-10-31T03:09:33;4.67;;;2.13;;
9536;SDS011;4807;48.024;11.726;2022-10-31T03:12:56;3.57;;;2.20;;
9536;SDS011;4807;48.024;11.726;2022-10-31T03:16:18;2.73;;;1.87;;
9536;SDS011;4807;48.024;11.726;2022-10-31T03:19:37;4.57;;;1.83;;
9536;SDS011;4807;48.024;11.726;2022-10-31T03:22:54;4.13;;;1.97;;
9536;SDS011;4807;48.024;11.726;2022-10-31T03:26:07;2.40;;;2.03;;
9536;SDS011;4807;48.024;11.726;2022-10-31T03:29:19;3.57;;;2.17;;
9536;SDS011;4807;48.024;11.726;2022-10-31T03:32:34;1.80;;;1.53;;
9536;SDS011;4807;48.024;11.726;2022-10-31T03:35:49;1.93;;;1.40;;
9536;SDS011;4807;48.024;11.726;2022-10-31T03:39:04;3.47;;;1.77;;
9536;SDS011;4807;48.024;11.726;2022-10-31T03:42:20;3.80;;;1.70;;
9536;SDS011;4807;48.024;11.726;2022-10-31T03:45:32;4.73;;;1.80;;
9536;SDS011;4807;48.024;11.726;2022-10-31T03:48:46;5.23;;;2.10;;
9536;SDS011;4807;48.024;11.726;2022-10-31T03:51:56;2.23;;;1.53;;
9536;SDS011;4807;48.024;11.726;2022-10-31T03:55:12;3.77;;;1.97;;
9536;SDS011;4807;48.024;11.726;2022-10-31T03:58:27;2.27;;;1.70;;
9536;SDS011;4807;48.024;11.726;2022-10-31T04:01:44;3.90;;;2.30;;
9536;SDS011;4807;48.024;11.726;2022-10-31T04:04:59;3.93;;;2.27;;
9536;SDS011;4807;48.024;11.726;2022-10-31T04:08:11;2.00;;;1.60;;
9536;SDS011;4807;48.024;11.726;2022-10-31T04:11:28;5.27;;;2.60;;
9536;SDS011;4807;48.024;11.726;2022-10-31T04:15:02;3.37;;;2.17;;
9536;SDS011;4807;48.024;11.726;2022-10-31T04:18:14;5.10;;;2.20;;
9536;SDS011;4807;48.024;11.726;2022-10-31T04:21:26;4.30;;;1.70;;
9536;SDS011;4807;48.024;11.726;2022-10-31T04:24:36;4.10;;;1.60;;
9536;SDS011;4807;48.024;11.726;2022-10-31T04:27:53;5.80;;;2.30;;
9536;SDS011;4807;48.024;11.726;2022-10-31T04:31:02;9.17;;;2.07;;
9536;SDS011;4807;48.024;11.726;2022-10-31T04:34:15;3.30;;;1.90;;
9536;SDS011;4807;48.024;11.726;2022-10-31T04:37:23;7.43;;;2.57;;
9536;SDS011;4807;48.024;11.726;2022-10-31T04:40:32;8.60;;;2.40;;
9536;SDS011;4807;48.024;11.726;2022-10-31T04:44:13;7.10;;;2.63;;
9536;SDS011;4807;48.024;11.726;2022-10-31T04:47:26;3.30;;;1.90;;
9536;SDS011;4807;48.024;11.726;2022-10-31T04:50:34;2.67;;;1.90;;
9536;SDS011;4807;48.024;11.726;2022-10-31T04:53:42;4.53;;;2.17;;
9536;SDS011;4807;48.024;11.726;2022-10-31T04:57:06;3.57;;;2.17;;
9536;SDS011;4807;48.024;11.726;2022-10-31T05:00:19;2.70;;;1.50;;
9536;SDS011;4807;48.024;11.726;2022-10-31T05:03:30;2.77;;;1.60;;
9536;SDS011;4807;48.024;11.726;2022-10-31T05:06:38;5.23;;;1.60;;
9536;SDS011;4807;48.024;11.726;2022-10-31T05:09:47;3.23;;;1.57;;
9536;SDS011;4807;48.024;11.726;2022-10-31T05:12:58;6.97;;;1.77;;
9536;SDS011;4807;48.024;11.726;2022-10-31T05:16:29;2.90;;;1.50;;
9536;SDS011;4807;48.024;11.726;2022-10-31T05:20:00;5.37;;;2.00;;
9536;SDS011;4807;48.024;11.726;2022-10-31T05:23:29;2.63;;;1.90;;
9536;SDS011;4807;48.024;11.726;2022-10-31T05:26:38;3.00;;;1.73;;
9536;SDS011;4807;48.024;11.726;2022-10-31T05:29:48;5.10;;;2.10;;
9536;SDS011;4807;48.024;11.726;2022-10-31T05:32:58;3.10;;;1.63;;
9536;SDS011;4807;48.024;11.726;2022-10-31T05:36:43;3.87;;;2.07;;
9536;SDS011;4807;48.024;11.726;2022-10-31T05:40:00;4.70;;;1.93;;
9536;SDS011;4807;48.024;11.726;2022-10-31T05:43:14;3.80;;;1.80;;
9536;SDS011;4807;48.024;11.726;2022-10-31T05:46:22;3.80;;;1.50;;
9536;SDS011;4807;48.024;11.726;2022-10-31T05:50:09;2.03;;;1.47;;
9536;SDS011;4807;48.024;11.726;2022-10-31T05:53:25;4.73;;;2.07;;
9536;SDS011;4807;48.024;11.726;2022-10-31T05:56:34;25.50;;;11.63;;
9536;SDS011;4807;48.024;11.726;2022-10-31T05:59:44;6.90;;;3.93;;
9536;SDS011;4807;48.024;11.726;2022-10-31T06:02:59;3.00;;;2.67;;
9536;SDS011;4807;48.024;11.726;2022-10-31T06:06:22;2.83;;;1.80;;
9536;SDS011;4807;48.024;11.726;2022-10-31T06:09:31;6.07;;;2.50;;
9536;SDS011;4807;48.024;11.726;2022-10-31T06:12:39;5.63;;;3.30;;
9536;SDS011;4807;48.024;11.726;2022-10-31T06:16:08;5.13;;;2.80;;
9536;SDS011;4807;48.024;11.726;2022-10-31T06:19:18;4.93;;;2.40;;
9536;SDS011;4807;48.024;11.726;2022-10-31T06:29:32;3.80;;;2.23;;
9536;SDS011;4807;48.024;11.726;2022-10-31T06:32:46;6.93;;;5.10;;
9536;SDS011;4807;48.024;11.726;2022-10-31T06:35:55;8.37;;;5.67;;
9536;SDS011;4807;48.024;11.726;2022-10-31T06:39:05;8.47;;;5.40;;
9536;SDS011;4807;48.024;11.726;2022-10-31T06:42:16;8.47;;;5.13;;
9536;SDS011;4807;48.024;11.726;2022-10-31T06:45:25;8.23;;;3.97;;
9536;SDS011;4807;48.024;11.726;2022-10-31T06:48:52;5.50;;;3.00;;
9536;SDS011;4807;48.024;11.726;2022-10-31T06:52:19;4.17;;;2.83;;
9536;SDS011;4807;48.024;11.726;2022-10-31T06:55:30;5.13;;;2.90;;
9536;SDS011;4807;48.024;11.726;2022-10-31T06:58:43;10.17;;;3.10;;
9536;SDS011;4807;48.024;11.726;2022-10-31T07:01:54;11.90;;;3.70;;
9536;SDS011;4807;48.024;11.726;2022-10-31T07:05:05;7.63;;;5.03;;
9536;SDS011;4807;48.024;11.726;2022-10-31T07:08:14;13.50;;;4.70;;
9536;SDS011;4807;48.024;11.726;2022-10-31T07:11:26;7.00;;;4.77;;
9536;SDS011;4807;48.024;11.726;2022-10-31T07:14:37;7.53;;;5.30;;
9536;SDS011;4807;48.024;11.726;2022-10-31T07:17:46;7.77;;;5.53;;
9536;SDS011;4807;48.024;11.726;2022-10-31T07:20:55;8.10;;;4.50;;
9536;SDS011;4807;48.024;11.726;2022-10-31T07:24:06;8.37;;;4.77;;
9536;SDS011;4807;48.024;11.726;2022-10-31T07:27:36;7.67;;;4.23;;
9536;SDS011;4807;48.024;11.726;2022-10-31T07:30:52;7.53;;;3.90;;
9536;SDS011;4807;48.024;11.726;2022-10-31T07:34:02;6.77;;;4.13;;
9536;SDS011;4807;48.024;11.726;2022-10-31T07:37:31;7.17;;;4.03;;
9536;SDS011;4807;48.024;11.726;2022-10-31T07:40:41;6.73;;;2.60;;
9536;SDS011;4807;48.024;11.726;2022-10-31T07:43:51;5.80;;;2.17;;
9536;SDS011;4807;48.024;11.726;2022-10-31T07:47:39;3.20;;;1.93;;
9536;SDS011;4807;48.024;11.726;2022-10-31T07:51:10;2.70;;;1.73;;
9536;SDS011;4807;48.024;11.726;2022-10-31T07:54:54;7.17;;;2.00;;
9536;SDS011;4807;48.024;11.726;2022-10-31T07:58:03;3.40;;;1.57;;
9536;SDS011;4807;48.024;11.726;2022-10-31T08:01:17;5.37;;;1.60;;
9536;SDS011;4807;48.024;11.726;2022-10-31T08:04:45;3.00;;;1.30;;
9536;SDS011;4807;48.024;11.726;2022-10-31T08:08:19;3.23;;;1.17;;
9536;SDS011;4807;48.024;11.726;2022-10-31T08:11:27;1.97;;;1.30;;
9536;SDS011;4807;48.024;11.726;2022-10-31T08:14:37;6.17;;;2.13;;
9536;SDS011;4807;48.024;11.726;2022-10-31T08:17:46;7.73;;;3.17;;
9536;SDS011;4807;48.024;11.726;2022-10-31T08:20:56;6.73;;;3.30;;
9536;SDS011;4807;48.024;11.726;2022-10-31T08:24:05;4.43;;;2.00;;
9536;SDS011;4807;48.024;11.726;2022-10-31T08:27:15;6.50;;;1.97;;
9536;SDS011;4807;48.024;11.726;2022-10-31T08:30:27;5.10;;;2.20;;
9536;SDS011;4807;48.024;11.726;2022-10-31T08:33:56;4.57;;;1.80;;
9536;SDS011;4807;48.024;11.726;2022-10-31T08:37:22;4.80;;;2.37;;
9536;SDS011;4807;48.024;11.726;2022-10-31T08:40:33;6.80;;;1.90;;
9536;SDS011;4807;48.024;11.726;2022-10-31T08:43:46;3.07;;;2.03;;
9536;SDS011;4807;48.024;11.726;2022-10-31T08:46:55;5.87;;;2.03;;
9536;SDS011;4807;48.024;11.726;2022-10-31T08:50:03;6.47;;;1.70;;
9536;SDS011;4807;48.024;11.726;2022-10-31T08:53:18;3.37;;;1.70;;
9536;SDS011;4807;48.024;11.726;2022-10-31T08:56:40;9.93;;;2.20;;
9536;SDS011;4807;48.024;11.726;2022-10-31T09:00:03;3.50;;;1.80;;
9536;SDS011;4807;48.024;11.726;2022-10-31T09:03:32;9.07;;;1.90;;
9536;SDS011;4807;48.024;11.726;2022-10-31T09:06:41;7.90;;;2.87;;
9536;SDS011;4807;48.024;11.726;2022-10-31T09:10:11;6.17;;;1.90;;
9536;SDS011;4807;48.024;11.726;2022-10-31T09:13:22;3.03;;;2.03;;
9536;SDS011;4807;48.024;11.726;2022-10-31T09:16:52;5.97;;;2.07;;
9536;SDS011;4807;48.024;11.726;2022-10-31T09:20:09;3.27;;;1.43;;
9536;SDS011;4807;48.024;11.726;2022-10-31T09:23:19;2.83;;;1.43;;
9536;SDS011;4807;48.024;11.726;2022-10-31T09:26:31;3.60;;;1.63;;
9536;SDS011;4807;48.024;11.726;2022-10-31T09:30:06;4.17;;;1.30;;
9536;SDS011;4807;48.024;11.726;2022-10-31T09:33:17;3.97;;;1.30;;
9536;SDS011;4807;48.024;11.726;2022-10-31T09:36:38;4.33;;;1.30;;
9536;SDS011;4807;48.024;11.726;2022-10-31T09:39:52;4.87;;;1.30;;
9536;SDS011;4807;48.024;11.726;2022-10-31T09:43:17;4.77;;;1.27;;
9536;SDS011;4807;48.024;11.726;2022-10-31T09:46:38;6.57;;;1.93;;
9536;SDS011;4807;48.024;11.726;2022-10-31T09:50:13;3.63;;;1.60;;
9536;SDS011;4807;48.024;11.726;2022-10-31T09:53:29;5.23;;;1.67;;
9536;SDS011;4807;48.024;11.726;2022-10-31T09:56:51;3.70;;;1.10;;
9536;SDS011;4807;48.024;11.726;2022-10-31T10:00:02;5.93;;;1.23;;
9536;SDS011;4807;48.024;11.726;2022-10-31T10:03:23;5.57;;;1.80;;
9536;SDS011;4807;48.024;11.726;2022-10-31T10:06:56;5.10;;;1.30;;
9536;SDS011;4807;48.024;11.726;2022-10-31T10:10:25;7.00;;;1.40;;
9536;SDS011;4807;48.024;11.726;2022-10-31T10:14:08;3.03;;;1.30;;
9536;SDS011;4807;48.024;11.726;2022-10-31T10:17:45;6.40;;;1.80;;
9536;SDS011;4807;48.024;11.726;2022-10-31T10:21:11;4.90;;;1.63;;
9536;SDS011;4807;48.024;11.726;2022-10-31T10:28:12;4.93;;;2.27;;
9536;SDS011;4807;48.024;11.726;2022-10-31T10:31:30;4.30;;;1.30;;
9536;SDS011;4807;48.024;11.726;2022-10-31T10:34:49;3.37;;;1.37;;
9536;SDS011;4807;48.024;11.726;2022-10-31T10:38:08;4.03;;;1.50;;
9536;SDS011;4807;48.024;11.726;2022-10-31T10:41:31;3.63;;;1.77;;
9536;SDS011;4807;48.024;11.726;2022-10-31T10:48:14;10.37;;;1.63;;
9536;SDS011;4807;48.024;11.726;2022-10-31T10:51:49;2.47;;;1.63;;
9536;SDS011;4807;48.024;11.726;2022-10-31T10:55:28;3.93;;;1.63;;
9536;SDS011;4807;48.024;11.726;2022-10-31T10:58:45;4.77;;;1.30;;
9536;SDS011;4807;48.024;11.726;2022-10-31T11:01:55;4.47;;;2.03;;
9536;SDS011;4807;48.024;11.726;2022-10-31T11:05:08;6.17;;;1.63;;
9536;SDS011;4807;48.024;11.726;2022-10-31T11:08:32;4.23;;;1.27;;
9536;SDS011;4807;48.024;11.726;2022-10-31T11:11:43;11.77;;;2.00;;
9536;SDS011;4807;48.024;11.726;2022-10-31T11:14:52;8.43;;;1.70;;
9536;SDS011;4807;48.024;11.726;2022-10-31T11:18:12;4.07;;;1.50;;
9536;SDS011;4807;48.024;11.726;2022-10-31T11:21:35;5.60;;;1.73;;
9536;SDS011;4807;48.024;11.726;2022-10-31T11:24:45;4.40;;;1.63;;
9536;SDS011;4807;48.024;11.726;2022-10-31T11:28:00;6.07;;;2.53;;
9536;SDS011;4807;48.024;11.726;2022-10-31T11:31:11;8.37;;;2.13;;
9536;SDS011;4807;48.024;11.726;2022-10-31T11:34:26;4.70;;;1.40;;
9536;SDS011;4807;48.024;11.726;2022-10-31T11:37:40;7.27;;;1.80;;
9536;SDS011;4807;48.024;11.726;2022-10-31T11:40:53;5.67;;;1.87;;
9536;SDS011;4807;48.024;11.726;2022-10-31T11:44:10;3.17;;;1.43;;
9536;SDS011;4807;48.024;11.726;2022-10-31T11:47:26;7.23;;;1.70;;
9536;SDS011;4807;48.024;11.726;2022-10-31T11:50:39;4.07;;;1.40;;
9536;SDS011;4807;48.024;11.726;2022-10-31T11:53:50;3.50;;;1.77;;
9536;SDS011;4807;48.024;11.726;2022-10-31T11:57:22;6.57;;;1.93;;
9536;SDS011;4807;48.024;11.726;2022-10-31T12:00:37;7.33;;;1.80;;
9536;SDS011;4807;48.024;11.726;2022-10-31T12:03:51;7.67;;;2.03;;
9536;SDS011;4807;48.024;11.726;2022-10-31T12:07:13;4.80;;;1.60;;
9536;SDS011;4807;48.024;11.726;2022-10-31T12:10:24;4.87;;;1.63;;
9536;SDS011;4807;48.024;11.726;2022-10-31T12:13:51;5.80;;;1.97;;
9536;SDS011;4807;48.024;11.726;2022-10-31T12:17:15;7.10;;;1.57;;
9536;SDS011;4807;48.024;11.726;2022-10-31T12:20:33;5.20;;;1.60;;
9536;SDS011;4807;48.024;11.726;2022-10-31T12:23:59;8.77;;;2.10;;
9536;SDS011;4807;48.024;11.726;2022-10-31T12:27:27;3.97;;;1.67;;
9536;SDS011;4807;48.024;11.726;2022-10-31T12:30:55;3.23;;;1.53;;
9536;SDS011;4807;48.024;11.726;2022-10-31T12:38:20;11.40;;;1.83;;
9536;SDS011;4807;48.024;11.726;2022-10-31T12:41:46;4.03;;;1.57;;
9536;SDS011;4807;48.024;11.726;2022-10-31T12:45:08;5.87;;;2.40;;
9536;SDS011;4807;48.024;11.726;2022-10-31T12:48:55;4.63;;;1.90;;
9536;SDS011;4807;48.024;11.726;2022-10-31T12:52:39;5.27;;;1.80;;
9536;SDS011;4807;48.024;11.726;2022-10-31T12:56:11;6.67;;;1.87;;
9536;SDS011;4807;48.024;11.726;2022-10-31T12:59:41;6.43;;;1.90;;
9536;SDS011;4807;48.024;11.726;2022-10-31T13:02:55;6.57;;;2.30;;
9536;SDS011;4807;48.024;11.726;2022-10-31T13:06:16;6.10;;;2.37;;
9536;SDS011;4807;48.024;11.726;2022-10-31T13:09:30;6.13;;;2.27;;
9536;SDS011;4807;48.024;11.726;2022-10-31T13:12:54;9.50;;;2.40;;
9536;SDS011;4807;48.024;11.726;2022-10-31T13:16:10;5.63;;;2.30;;
9536;SDS011;4807;48.024;11.726;2022-10-31T13:19:25;8.50;;;2.10;;
9536;SDS011;4807;48.024;11.726;2022-10-31T13:22:41;5.97;;;2.53;;
9536;SDS011;4807;48.024;11.726;2022-10-31T13:25:55;4.80;;;2.03;;
9536;SDS011;4807;48.024;11.726;2022-10-31T13:29:11;12.17;;;4.00;;
9536;SDS011;4807;48.024;11.726;2022-10-31T13:32:37;7.00;;;2.73;;
9536;SDS011;4807;48.024;11.726;2022-10-31T13:35:51;9.80;;;2.57;;
9536;SDS011;4807;48.024;11.726;2022-10-31T13:39:20;5.43;;;2.40;;
9536;SDS011;4807;48.024;11.726;2022-10-31T13:42:42;4.53;;;1.93;;
9536;SDS011;4807;48.024;11.726;2022-10-31T13:49:37;4.87;;;2.40;;
9536;SDS011;4807;48.024;11.726;2022-10-31T13:52:47;7.03;;;3.10;;
9536;SDS011;4807;48.024;11.726;2022-10-31T13:56:03;3.93;;;2.57;;
9536;SDS011;4807;48.024;11.726;2022-10-31T13:59:23;7.77;;;3.73;;
9536;SDS011;4807;48.024;11.726;2022-10-31T14:02:34;7.33;;;3.63;;
9536;SDS011;4807;48.024;11.726;2022-10-31T14:05:44;8.00;;;2.90;;
9536;SDS011;4807;48.024;11.726;2022-10-31T14:09:01;6.03;;;2.60;;
9536;SDS011;4807;48.024;11.726;2022-10-31T14:12:21;6.07;;;2.60;;
9536;SDS011;4807;48.024;11.726;2022-10-31T14:15:34;6.47;;;3.30;;
9536;SDS011;4807;48.024;11.726;2022-10-31T14:18:50;6.80;;;3.17;;
9536;SDS011;4807;48.024;11.726;2022-10-31T14:22:18;6.83;;;3.53;;
9536;SDS011;4807;48.024;11.726;2022-10-31T14:25:29;10.90;;;2.80;;
9536;SDS011;4807;48.024;11.726;2022-10-31T14:28:41;7.37;;;2.37;;
9536;SDS011;4807;48.024;11.726;2022-10-31T14:31:54;4.97;;;2.40;;
9536;SDS011;4807;48.024;11.726;2022-10-31T14:35:17;3.33;;;2.23;;
9536;SDS011;4807;48.024;11.726;2022-10-31T14:38:30;9.00;;;3.07;;
9536;SDS011;4807;48.024;11.726;2022-10-31T14:41:58;5.57;;;2.93;;
9536;SDS011;4807;48.024;11.726;2022-10-31T14:45:27;10.03;;;2.63;;
9536;SDS011;4807;48.024;11.726;2022-10-31T14:48:54;5.50;;;2.60;;
9536;SDS011;4807;48.024;11.726;2022-10-31T14:52:19;9.13;;;3.00;;
9536;SDS011;4807;48.024;11.726;2022-10-31T14:55:29;5.47;;;2.90;;
9536;SDS011;4807;48.024;11.726;2022-10-31T14:58:39;8.40;;;3.60;;
9536;SDS011;4807;48.024;11.726;2022-10-31T15:01:55;11.90;;;3.33;;
9536;SDS011;4807;48.024;11.726;2022-10-31T15:05:09;12.70;;;3.63;;
9536;SDS011;4807;48.024;11.726;2022-10-31T15:08:27;6.50;;;3.20;;
9536;SDS011;4807;48.024;11.726;2022-10-31T15:11:42;7.00;;;3.00;;
9536;SDS011;4807;48.024;11.726;2022-10-31T15:14:51;8.93;;;3.47;;
9536;SDS011;4807;48.024;11.726;2022-10-31T15:18:04;9.27;;;3.83;;
9536;SDS011;4807;48.024;11.726;2022-10-31T15:21:14;7.20;;;3.20;;
9536;SDS011;4807;48.024;11.726;2022-10-31T15:24:24;8.47;;;3.03;;
9536;SDS011;4807;48.024;11.726;2022-10-31T15:27:40;10.83;;;4.87;;
9536;SDS011;4807;48.024;11.726;2022-10-31T15:30:52;9.70;;;4.40;;
9536;SDS011;4807;48.024;11.726;2022-10-31T15:34:11;9.87;;;4.50;;
9536;SDS011;4807;48.024;11.726;2022-10-31T15:37:39;7.10;;;4.23;;
9536;SDS011;4807;48.024;11.726;2022-10-31T15:41:19;10.70;;;4.10;;
9536;SDS011;4807;48.024;11.726;2022-10-31T15:44:35;6.77;;;4.43;;
9536;SDS011;4807;48.024;11.726;2022-10-31T15:47:53;11.70;;;4.10;;
9536;SDS011;4807;48.024;11.726;2022-10-31T15:51:06;11.80;;;4.60;;
9536;SDS011;4807;48.024;11.726;2022-10-31T15:54:15;5.47;;;4.07;;
9536;SDS011;4807;48.024;11.726;2022-10-31T15:57:23;8.17;;;3.60;;
9536;SDS011;4807;48.024;11.726;2022-10-31T16:00:34;8.00;;;4.07;;
9536;SDS011;4807;48.024;11.726;2022-10-31T16:03:54;10.50;;;4.57;;
9536;SDS011;4807;48.024;11.726;2022-10-31T16:07:13;9.90;;;4.27;;
9536;SDS011;4807;48.024;11.726;2022-10-31T16:10:46;3.87;;;3.47;;
9536;SDS011;4807;48.024;11.726;2022-10-31T16:13:56;8.30;;;5.50;;
9536;SDS011;4807;48.024;11.726;2022-10-31T16:17:11;10.03;;;5.63;;
9536;SDS011;4807;48.024;11.726;2022-10-31T16:20:23;8.20;;;4.07;;
9536;SDS011;4807;48.024;11.726;2022-10-31T16:23:43;8.73;;;4.03;;
9536;SDS011;4807;48.024;11.726;2022-10-31T16:27:04;6.23;;;4.10;;
9536;SDS011;4807;48.024;11.726;2022-10-31T16:30:34;12.50;;;4.53;;
9536;SDS011;4807;48.024;11.726;2022-10-31T16:34:00;7.00;;;3.77;;
9536;SDS011;4807;48.024;11.726;2022-10-31T16:37:11;8.33;;;4.77;;
9536;SDS011;4807;48.024;11.726;2022-10-31T16:40:21;9.77;;;4.93;;
9536;SDS011;4807;48.024;11.726;2022-10-31T16:43:30;8.10;;;4.57;;
9536;SDS011;4807;48.024;11.726;2022-10-31T16:46:39;7.50;;;5.70;;
9536;SDS011;4807;48.024;11.726;2022-10-31T16:49:51;10.83;;;6.17;;
9536;SDS011;4807;48.024;11.726;2022-10-31T16:53:00;9.70;;;6.57;;
9536;SDS011;4807;48.024;11.726;2022-10-31T16:56:28;8.70;;;5.70;;
9536;SDS011;4807;48.024;11.726;2022-10-31T16:59:56;8.23;;;5.90;;
9536;SDS011;4807;48.024;11.726;2022-10-31T17:03:07;22.10;;;6.13;;
9536;SDS011;4807;48.024;11.726;2022-10-31T17:06:16;11.17;;;6.43;;
9536;SDS011;4807;48.024;11.726;2022-10-31T17:09:25;13.43;;;5.17;;
9536;SDS011;4807;48.024;11.726;2022-10-31T17:12:34;8.10;;;4.97;;
9536;SDS011;4807;48.024;11.726;2022-10-31T17:15:45;6.63;;;4.93;;
9536;SDS011;4807;48.024;11.726;2022-10-31T17:18:58;13.67;;;5.43;;
9536;SDS011;4807;48.024;11.726;2022-10-31T17:22:07;11.23;;;5.80;;
9536;SDS011;4807;48.024;11.726;2022-10-31T17:25:19;10.80;;;5.17;;
9536;SDS011;4807;48.024;11.726;2022-10-31T17:28:31;8.13;;;5.30;;
9536;SDS011;4807;48.024;11.726;2022-10-31T17:31:46;11.90;;;4.93;;
9536;SDS011;4807;48.024;11.726;2022-10-31T17:34:55;10.97;;;4.30;;
9536;SDS011;4807;48.024;11.726;2022-10-31T17:38:04;6.63;;;3.97;;
9536;SDS011;4807;48.024;11.726;2022-10-31T17:41:12;8.80;;;3.97;;
9536;SDS011;4807;48.024;11.726;2022-10-31T17:44:22;4.60;;;3.60;;
9536;SDS011;4807;48.024;11.726;2022-10-31T17:47:30;4.73;;;3.10;;
9536;SDS011;4807;48.024;11.726;2022-10-31T17:50:40;9.23;;;3.40;;
9536;SDS011;4807;48.024;11.726;2022-10-31T17:53:48;5.77;;;4.37;;
9536;SDS011;4807;48.024;11.726;2022-10-31T17:56:57;10.53;;;5.13;;
9536;SDS011;4807;48.024;11.726;2022-10-31T18:00:12;9.60;;;3.67;;
9536;SDS011;4807;48.024;11.726;2022-10-31T18:03:24;7.03;;;3.07;;
9536;SDS011;4807;48.024;11.726;2022-10-31T18:06:34;4.60;;;2.80;;
9536;SDS011;4807;48.024;11.726;2022-10-31T18:09:52;7.67;;;3.43;;
9536;SDS011;4807;48.024;11.726;2022-10-31T18:13:01;7.63;;;3.40;;
9536;SDS011;4807;48.024;11.726;2022-10-31T18:16:15;6.53;;;3.70;;
9536;SDS011;4807;48.024;11.726;2022-10-31T18:19:25;11.33;;;4.27;;
9536;SDS011;4807;48.024;11.726;2022-10-31T18:22:33;7.27;;;3.47;;
9536;SDS011;4807;48.024;11.726;2022-10-31T18:25:41;6.67;;;3.03;;
9536;SDS011;4807;48.024;11.726;2022-10-31T18:28:50;5.77;;;3.67;;
9536;SDS011;4807;48.024;11.726;2022-10-31T18:32:00;7.10;;;4.20;;
9536;SDS011;4807;48.024;11.726;2022-10-31T18:35:14;4.50;;;3.00;;
9536;SDS011;4807;48.024;11.726;2022-10-31T18:38:22;7.20;;;2.90;;
9536;SDS011;4807;48.024;11.726;2022-10-31T18:41:31;12.50;;;3.37;;
9536;SDS011;4807;48.024;11.726;2022-10-31T18:44:40;7.37;;;4.30;;
9536;SDS011;4807;48.024;11.726;2022-10-31T18:47:50;8.23;;;4.60;;
9536;SDS011;4807;48.024;11.726;2022-10-31T18:51:00;8.93;;;6.27;;
9536;SDS011;4807;48.024;11.726;2022-10-31T18:54:10;7.80;;;6.53;;
9536;SDS011;4807;48.024;11.726;2022-10-31T18:57:18;10.40;;;6.30;;
9536;SDS011;4807;48.024;11.726;2022-10-31T19:00:27;10.00;;;5.87;;
9536;SDS011;4807;48.024;11.726;2022-10-31T19:03:37;6.03;;;4.53;;
9536;SDS011;4807;48.024;11.726;2022-10-31T19:06:46;7.90;;;5.40;;
9536;SDS011;4807;48.024;11.726;2022-10-31T19:09:54;6.67;;;4.90;;
9536;SDS011;4807;48.024;11.726;2022-10-31T19:13:03;6.53;;;5.73;;
9536;SDS011;4807;48.024;11.726;2022-10-31T19:16:13;13.87;;;5.97;;
9536;SDS011;4807;48.024;11.726;2022-10-31T19:19:25;5.43;;;4.70;;
9536;SDS011;4807;48.024;11.726;2022-10-31T19:22:33;6.60;;;4.50;;
9536;SDS011;4807;48.024;11.726;2022-10-31T19:25:42;10.20;;;4.97;;
9536;SDS011;4807;48.024;11.726;2022-10-31T19:28:55;8.73;;;5.10;;
9536;SDS011;4807;48.024;11.726;2022-10-31T19:32:04;10.13;;;4.87;;
9536;SDS011;4807;48.024;11.726;2022-10-31T19:35:14;9.93;;;4.57;;
9536;SDS011;4807;48.024;11.726;2022-10-31T19:38:22;8.83;;;4.57;;
9536;SDS011;4807;48.024;11.726;2022-10-31T19:41:31;6.00;;;4.63;;
9536;SDS011;4807;48.024;11.726;2022-10-31T19:44:39;8.53;;;3.90;;
9536;SDS011;4807;48.024;11.726;2022-10-31T19:47:48;9.53;;;4.07;;
9536;SDS011;4807;48.024;11.726;2022-10-31T19:51:02;8.40;;;4.20;;
9536;SDS011;4807;48.024;11.726;2022-10-31T19:54:12;7.67;;;4.07;;
9536;SDS011;4807;48.024;11.726;2022-10-31T19:57:21;6.17;;;3.80;;
9536;SDS011;4807;48.024;11.726;2022-10-31T20:00:50;7.40;;;3.60;;
9536;SDS011;4807;48.024;11.726;2022-10-31T20:03:59;9.57;;;3.10;;
9536;SDS011;4807;48.024;11.726;2022-10-31T20:07:09;15.33;;;9.60;;
9536;SDS011;4807;48.024;11.726;2022-10-31T20:10:17;10.73;;;7.33;;
9536;SDS011;4807;48.024;11.726;2022-10-31T20:13:26;17.10;;;9.10;;
9536;SDS011;4807;48.024;11.726;2022-10-31T20:16:36;26.40;;;15.50;;
9536;SDS011;4807;48.024;11.726;2022-10-31T20:19:45;16.83;;;9.43;;
9536;SDS011;4807;48.024;11.726;2022-10-31T20:22:58;20.13;;;11.60;;
9536;SDS011;4807;48.024;11.726;2022-10-31T20:26:08;17.63;;;9.27;;
9536;SDS011;4807;48.024;11.726;2022-10-31T20:33:04;16.70;;;8.43;;